createdAt,value
2018-08-25T00:00:11.450Z,0.00
2018-08-25T00:01:11.390Z,0.00
2018-08-25T00:02:11.329Z,0.00
2018-08-25T00:03:11.274Z,0.00
2018-08-25T00:04:11.213Z,0.00
2018-08-25T00:05:11.155Z,0.00
2018-08-25T00:06:11.096Z,0.00
2018-08-25T00:07:11.036Z,0.00
2018-08-25T00:08:10.963Z,0.00
2018-08-25T00:09:10.913Z,0.00
2018-08-25T00:10:10.853Z,0.00
2018-08-25T00:11:10.785Z,0.00
2018-08-25T00:12:10.721Z,0.00
2018-08-25T00:13:10.661Z,0.00
2018-08-25T00:14:10.600Z,0.00
2018-08-25T00:15:10.550Z,0.00
2018-08-25T00:16:10.487Z,0.00
2018-08-25T00:17:10.415Z,0.00
2018-08-25T00:18:10.357Z,0.00
2018-08-25T00:19:10.304Z,0.00
2018-08-25T00:20:10.243Z,0.00
2018-08-25T00:21:10.179Z,0.00
2018-08-25T00:22:10.120Z,0.00
2018-08-25T00:23:10.053Z,0.00
2018-08-25T00:24:09.999Z,0.00
2018-08-25T00:25:09.970Z,0.00
2018-08-25T00:26:09.892Z,0.00
2018-08-25T00:27:09.820Z,0.00
2018-08-25T00:28:09.749Z,0.00
2018-08-25T00:29:09.695Z,0.00
2018-08-25T00:30:09.628Z,0.00
2018-08-25T00:31:09.573Z,0.00
2018-08-25T00:32:09.516Z,0.00
2018-08-25T00:33:09.459Z,0.00
2018-08-25T00:34:09.400Z,0.00
2018-08-25T00:35:09.329Z,0.00
2018-08-25T00:36:09.264Z,0.00
2018-08-25T00:37:09.202Z,0.00
2018-08-25T00:38:09.144Z,0.00
2018-08-25T00:39:09.088Z,0.00
2018-08-25T00:40:09.026Z,0.00
2018-08-25T00:41:08.970Z,0.00
2018-08-25T00:42:08.906Z,0.00
2018-08-25T00:43:08.847Z,0.00
2018-08-25T00:44:08.790Z,0.00
2018-08-25T00:45:08.729Z,0.00
2018-08-25T00:46:08.663Z,0.00
2018-08-25T00:47:08.598Z,0.00
2018-08-25T00:48:08.540Z,0.00
2018-08-25T00:49:08.476Z,0.00
2018-08-25T00:50:08.414Z,0.00
2018-08-25T00:51:08.369Z,0.00
2018-08-25T00:52:08.302Z,0.00
2018-08-25T00:53:08.244Z,0.00
2018-08-25T00:54:08.178Z,0.00
2018-08-25T00:55:08.109Z,0.00
2018-08-25T00:56:08.064Z,0.00
2018-08-25T00:57:07.995Z,0.00
2018-08-25T00:58:07.935Z,0.00
2018-08-25T00:59:07.872Z,0.00
2018-08-25T01:00:07.805Z,0.00
2018-08-25T01:01:07.743Z,0.00
2018-08-25T01:02:07.689Z,0.00
2018-08-25T01:03:07.629Z,0.00
2018-08-25T01:04:07.574Z,0.00
2018-08-25T01:05:07.512Z,0.00
2018-08-25T01:06:07.444Z,0.00
2018-08-25T01:07:07.379Z,0.00
2018-08-25T01:08:07.318Z,0.00
2018-08-25T01:09:07.256Z,0.00
2018-08-25T01:10:07.203Z,0.00
2018-08-25T01:11:07.145Z,0.00
2018-08-25T01:12:07.088Z,0.00
2018-08-25T01:13:07.029Z,0.00
2018-08-25T01:14:06.951Z,0.00
2018-08-25T01:15:06.898Z,0.00
2018-08-25T01:16:06.834Z,0.00
2018-08-25T01:17:06.775Z,0.00
2018-08-25T01:18:06.713Z,0.00
2018-08-25T01:19:06.646Z,0.00
2018-08-25T01:20:06.583Z,0.00
2018-08-25T01:21:06.525Z,0.00
2018-08-25T01:22:06.463Z,0.00
2018-08-25T01:23:06.411Z,0.00
2018-08-25T01:24:06.347Z,0.00
2018-08-25T01:25:06.300Z,0.00
2018-08-25T01:26:06.223Z,0.00
2018-08-25T01:27:06.160Z,0.00
2018-08-25T01:28:06.113Z,0.00
2018-08-25T01:29:06.041Z,0.00
2018-08-25T01:30:05.984Z,0.00
2018-08-25T01:31:05.913Z,0.00
2018-08-25T01:32:05.854Z,0.00
2018-08-25T01:33:05.793Z,0.00
2018-08-25T01:34:05.729Z,0.00
2018-08-25T01:35:05.676Z,0.00
2018-08-25T01:36:05.611Z,0.00
2018-08-25T01:37:05.554Z,0.00
2018-08-25T01:38:05.492Z,0.00
2018-08-25T01:39:05.423Z,0.00
2018-08-25T01:40:05.362Z,0.00
2018-08-25T01:41:05.301Z,0.00
2018-08-25T01:42:05.240Z,0.00
2018-08-25T01:43:05.192Z,0.00
2018-08-25T01:44:05.138Z,0.00
2018-08-25T01:45:05.056Z,0.00
2018-08-25T01:46:04.994Z,0.00
2018-08-25T01:47:04.941Z,0.00
2018-08-25T01:48:04.878Z,0.00
2018-08-25T01:49:04.815Z,0.00
2018-08-25T01:50:04.756Z,0.00
2018-08-25T01:51:04.688Z,0.00
2018-08-25T01:52:04.629Z,0.00
2018-08-25T01:53:04.565Z,0.00
2018-08-25T01:54:04.504Z,0.00
2018-08-25T01:55:04.449Z,0.00
2018-08-25T01:56:04.385Z,0.00
2018-08-25T01:57:04.328Z,0.00
2018-08-25T01:58:04.267Z,0.00
2018-08-25T01:59:04.198Z,0.00
2018-08-25T02:00:04.134Z,0.00
2018-08-25T02:01:04.081Z,0.00
2018-08-25T02:02:04.021Z,0.00
2018-08-25T02:03:03.953Z,0.00
2018-08-25T02:04:03.890Z,0.00
2018-08-25T02:05:03.829Z,0.00
2018-08-25T02:06:03.769Z,0.00
2018-08-25T02:07:03.714Z,0.00
2018-08-25T02:08:03.651Z,0.00
2018-08-25T02:09:03.589Z,0.00
2018-08-25T02:10:03.527Z,0.00
2018-08-25T02:11:03.462Z,0.00
2018-08-25T02:12:03.398Z,0.00
2018-08-25T02:13:03.338Z,0.00
2018-08-25T02:14:03.279Z,0.00
2018-08-25T02:15:03.237Z,0.00
2018-08-25T02:16:03.160Z,0.00
2018-08-25T02:17:03.094Z,0.00
2018-08-25T02:18:03.031Z,0.00
2018-08-25T02:19:02.975Z,0.00
2018-08-25T02:20:02.914Z,0.00
2018-08-25T02:21:02.861Z,0.00
2018-08-25T02:22:02.791Z,0.00
2018-08-25T02:23:02.729Z,0.00
2018-08-25T02:24:02.661Z,0.00
2018-08-25T02:25:02.600Z,0.00
2018-08-25T02:26:02.538Z,0.00
2018-08-25T02:27:02.485Z,0.00
2018-08-25T02:28:02.450Z,0.00
2018-08-25T02:29:02.364Z,0.00
2018-08-25T02:30:02.299Z,0.00
2018-08-25T02:31:02.252Z,0.00
2018-08-25T02:32:02.170Z,0.00
2018-08-25T02:33:02.115Z,0.00
2018-08-25T02:34:02.053Z,0.00
2018-08-25T02:35:01.992Z,0.00
2018-08-25T02:36:01.923Z,0.00
2018-08-25T02:37:01.863Z,0.00
2018-08-25T02:38:01.804Z,0.00
2018-08-25T02:39:01.747Z,0.00
2018-08-25T02:40:01.689Z,0.00
2018-08-25T02:41:01.623Z,0.00
2018-08-25T02:42:01.562Z,0.00
2018-08-25T02:43:01.494Z,0.00
2018-08-25T02:44:01.432Z,0.00
2018-08-25T02:45:01.370Z,0.00
2018-08-25T02:46:01.312Z,0.00
2018-08-25T02:47:01.253Z,0.00
2018-08-25T02:48:01.193Z,0.00
2018-08-25T02:49:01.128Z,0.00
2018-08-25T02:50:01.063Z,0.00
2018-08-25T02:51:01.010Z,0.00
2018-08-25T02:52:00.948Z,0.00
2018-08-25T02:53:00.886Z,0.00
2018-08-25T02:54:00.824Z,0.00
2018-08-25T02:55:00.764Z,0.00
2018-08-25T02:56:00.695Z,0.00
2018-08-25T02:57:00.635Z,0.00
2018-08-25T02:58:00.572Z,0.00
2018-08-25T02:59:00.517Z,0.00
2018-08-25T03:00:00.462Z,0.00
2018-08-25T03:01:00.411Z,0.00
2018-08-25T03:02:00.334Z,0.00
2018-08-25T03:03:00.266Z,0.00
2018-08-25T03:04:00.203Z,0.00
2018-08-25T03:05:00.148Z,0.00
2018-08-25T03:06:00.088Z,0.00
2018-08-25T03:07:00.022Z,0.00
2018-08-25T03:07:59.960Z,0.00
2018-08-25T03:08:59.901Z,0.00
2018-08-25T03:09:59.837Z,0.00
2018-08-25T03:10:59.783Z,0.00
2018-08-25T03:11:59.721Z,0.00
2018-08-25T03:12:59.656Z,0.00
2018-08-25T03:13:59.597Z,0.00
2018-08-25T03:14:59.534Z,0.00
2018-08-25T03:15:59.468Z,0.00
2018-08-25T03:16:59.421Z,0.00
2018-08-25T03:17:59.348Z,0.00
2018-08-25T03:18:59.290Z,0.00
2018-08-25T03:19:59.229Z,0.00
2018-08-25T03:20:59.160Z,0.00
2018-08-25T03:21:59.099Z,0.00
2018-08-25T03:22:59.042Z,0.00
2018-08-25T03:23:58.981Z,0.00
2018-08-25T03:24:58.922Z,0.00
2018-08-25T03:25:58.860Z,0.00
2018-08-25T03:26:58.791Z,0.00
2018-08-25T03:27:58.728Z,0.00
2018-08-25T03:28:58.667Z,0.00
2018-08-25T03:29:58.610Z,0.00
2018-08-25T03:30:58.556Z,0.00
2018-08-25T03:31:58.492Z,0.00
2018-08-25T03:32:58.440Z,0.00
2018-08-25T03:33:58.367Z,0.00
2018-08-25T03:34:58.299Z,0.00
2018-08-25T03:35:58.239Z,0.00
2018-08-25T03:36:58.183Z,0.00
2018-08-25T03:37:58.121Z,0.00
2018-08-25T03:38:58.081Z,0.00
2018-08-25T03:39:57.992Z,4.00
2018-08-25T03:40:57.930Z,4.00
2018-08-25T03:41:57.869Z,4.00
2018-08-25T03:42:57.813Z,0.00
2018-08-25T03:43:57.750Z,4.00
2018-08-25T03:44:57.689Z,4.00
2018-08-25T03:45:57.630Z,8.00
2018-08-25T03:46:57.564Z,4.00
2018-08-25T03:47:57.500Z,8.00
2018-08-25T03:48:57.447Z,8.00
2018-08-25T03:49:57.376Z,8.00
2018-08-25T03:50:57.326Z,8.00
2018-08-25T03:51:57.257Z,12.00
2018-08-25T03:52:57.193Z,12.00
2018-08-25T03:53:57.130Z,16.00
2018-08-25T03:54:57.077Z,16.00
2018-08-25T03:55:57.013Z,16.00
2018-08-25T03:56:56.952Z,20.00
2018-08-25T03:57:56.897Z,24.00
2018-08-25T03:58:56.822Z,28.00
2018-08-25T03:59:56.770Z,32.00
2018-08-25T04:00:56.707Z,36.00
2018-08-25T04:01:56.637Z,44.00
2018-08-25T04:02:56.587Z,48.00
2018-08-25T04:03:56.522Z,56.00
2018-08-25T04:04:56.467Z,60.00
2018-08-25T04:05:56.399Z,68.00
2018-08-25T04:06:56.337Z,76.00
2018-08-25T04:07:56.269Z,80.00
2018-08-25T04:08:56.219Z,84.00
2018-08-25T04:09:56.151Z,92.00
2018-08-25T04:10:56.090Z,96.00
2018-08-25T04:11:56.023Z,108.00
2018-08-25T04:12:55.961Z,116.00
2018-08-25T04:13:55.902Z,132.00
2018-08-25T04:14:55.952Z,144.00
2018-08-25T04:15:55.782Z,160.00
2018-08-25T04:16:55.727Z,172.00
2018-08-25T04:17:55.661Z,192.00
2018-08-25T04:18:55.592Z,204.00
2018-08-25T04:19:55.543Z,220.00
2018-08-25T04:20:55.471Z,232.00
2018-08-25T04:21:55.410Z,244.00
2018-08-25T04:22:55.352Z,256.00
2018-08-25T04:23:55.291Z,268.00
2018-08-25T04:25:09.023Z,280.00
2018-08-25T04:26:48.545Z,300.00
2018-08-25T04:27:48.440Z,316.00
2018-08-25T04:29:42.968Z,364.00
2018-08-25T04:30:42.873Z,384.00
2018-08-25T04:31:42.806Z,404.00
2018-08-25T04:32:42.742Z,424.00
2018-08-25T04:33:42.681Z,444.00
2018-08-25T04:34:42.627Z,472.00
2018-08-25T04:35:42.568Z,508.00
2018-08-25T04:36:42.501Z,544.00
2018-08-25T04:37:42.440Z,596.00
2018-08-25T04:38:42.374Z,648.00
2018-08-25T04:39:42.314Z,696.00
2018-08-25T04:40:42.258Z,736.00
2018-08-25T04:41:42.197Z,780.00
2018-08-25T04:42:42.127Z,824.00
2018-08-25T04:43:42.065Z,876.00
2018-08-25T04:44:42.004Z,912.00
2018-08-25T04:45:41.946Z,960.00
2018-08-25T04:46:41.886Z,1004.00
2018-08-25T04:47:41.827Z,1040.00
2018-08-25T04:48:41.768Z,1076.00
2018-08-25T04:49:41.704Z,1124.00
2018-08-25T04:50:41.645Z,1180.00
2018-08-25T04:51:41.572Z,1236.00
2018-08-25T04:52:41.514Z,1296.00
2018-08-25T04:53:41.451Z,1372.00
2018-08-25T04:54:41.395Z,1444.00
2018-08-25T04:55:41.331Z,1520.00
2018-08-25T04:56:41.264Z,1584.00
2018-08-25T04:57:41.204Z,1648.00
2018-08-25T04:58:41.150Z,1716.00
2018-08-25T04:59:41.088Z,1768.00
2018-08-25T05:00:41.026Z,1800.00
2018-08-25T05:01:40.978Z,1816.00
2018-08-25T05:02:40.898Z,1824.00
2018-08-25T05:03:40.837Z,1824.00
2018-08-25T05:04:40.777Z,1816.00
2018-08-25T05:05:40.728Z,1816.00
2018-08-25T05:06:40.668Z,1812.00
2018-08-25T05:07:40.632Z,1824.00
2018-08-25T05:08:40.534Z,1868.00
2018-08-25T05:09:40.474Z,1924.00
2018-08-25T05:10:40.408Z,1996.00
2018-08-25T05:11:40.347Z,2096.00
2018-08-25T05:12:40.290Z,2212.00
2018-08-25T05:13:40.236Z,2320.00
2018-08-25T05:14:40.163Z,2448.00
2018-08-25T05:15:40.104Z,2564.00
2018-08-25T05:16:40.044Z,2660.00
2018-08-25T05:17:39.981Z,2736.00
2018-08-25T05:18:39.924Z,2788.00
2018-08-25T05:19:39.859Z,2856.00
2018-08-25T05:20:39.799Z,2940.00
2018-08-25T05:21:39.744Z,3076.00
2018-08-25T05:22:39.672Z,3264.00
2018-08-25T05:23:39.615Z,3432.00
2018-08-25T05:24:39.543Z,3568.00
2018-08-25T05:25:39.483Z,3648.00
2018-08-25T05:26:39.431Z,3708.00
2018-08-25T05:27:39.368Z,3696.00
2018-08-25T05:28:39.300Z,3648.00
2018-08-25T05:29:39.241Z,3612.00
2018-08-25T05:30:39.180Z,3660.00
2018-08-25T05:31:39.120Z,3800.00
2018-08-25T05:32:39.069Z,3900.00
2018-08-25T05:33:39.004Z,3928.00
2018-08-25T05:34:38.931Z,3868.00
2018-08-25T05:35:38.869Z,3848.00
2018-08-25T05:36:38.808Z,3964.00
2018-08-25T05:37:38.748Z,4060.00
2018-08-25T05:38:38.692Z,4152.00
2018-08-25T05:39:38.630Z,4224.00
2018-08-25T05:40:38.570Z,4292.00
2018-08-25T05:41:38.513Z,4344.00
2018-08-25T05:42:38.439Z,4404.00
2018-08-25T05:43:38.381Z,4468.00
2018-08-25T05:44:38.336Z,4496.00
2018-08-25T05:45:38.278Z,4548.00
2018-08-25T05:46:38.196Z,4604.00
2018-08-25T05:47:38.133Z,4592.00
2018-08-25T05:48:38.074Z,4592.00
2018-08-25T05:49:38.017Z,4568.00
2018-08-25T05:50:37.962Z,4544.00
2018-08-25T05:51:37.898Z,4528.00
2018-08-25T05:52:37.849Z,4496.00
2018-08-25T05:53:37.791Z,4440.00
2018-08-25T05:54:37.705Z,4464.00
2018-08-25T05:55:37.645Z,4484.00
2018-08-25T05:56:45.238Z,4540.00
2018-08-25T05:58:33.490Z,4564.00
2018-08-25T05:59:31.799Z,4576.00
2018-08-25T06:00:39.384Z,4564.00
2018-08-25T06:02:26.036Z,4544.00
2018-08-25T06:03:25.940Z,4632.00
2018-08-25T06:05:19.247Z,4752.00
2018-08-25T06:06:19.159Z,4820.00
2018-08-25T06:08:13.478Z,4932.00
2018-08-25T06:09:13.365Z,5012.00
2018-08-25T06:10:13.308Z,5168.00
2018-08-25T06:11:13.248Z,5512.00
2018-08-25T06:12:13.187Z,5648.00
2018-08-25T06:13:13.130Z,5740.00
2018-08-25T06:14:20.699Z,5604.00
2018-08-25T06:16:06.366Z,5440.00
2018-08-25T06:17:06.281Z,5468.00
2018-08-25T06:19:00.577Z,5560.00
2018-08-25T06:20:00.482Z,5572.00
2018-08-25T06:21:54.769Z,5788.00
2018-08-25T06:22:54.669Z,6140.00
2018-08-25T06:24:48.969Z,6372.00
2018-08-25T06:25:48.893Z,6416.00
2018-08-25T06:26:48.818Z,6428.00
2018-08-25T06:27:48.777Z,6496.00
2018-08-25T06:28:48.705Z,6528.00
2018-08-25T06:29:48.735Z,6552.00
2018-08-25T06:30:48.584Z,6648.00
2018-08-25T06:31:48.515Z,6716.00
2018-08-25T06:32:48.462Z,6584.00
2018-08-25T06:33:48.407Z,6624.00
2018-08-25T06:34:56.584Z,6988.00
2018-08-25T06:36:52.979Z,8212.00
2018-08-25T06:37:45.054Z,8964.00
2018-08-25T06:39:48.194Z,9568.00
2018-08-25T06:40:39.444Z,9940.00
2018-08-25T06:42:33.772Z,9088.00
2018-08-25T06:43:33.713Z,9040.00
2018-08-25T06:44:33.620Z,9156.00
2018-08-25T06:45:33.545Z,9240.00
2018-08-25T06:46:33.499Z,8996.00
2018-08-25T06:47:33.429Z,9172.00
2018-08-25T06:48:33.356Z,9492.00
2018-08-25T06:49:33.301Z,9900.00
2018-08-25T06:50:33.246Z,10244.00
2018-08-25T06:51:33.182Z,10740.00
2018-08-25T06:52:33.116Z,11032.00
2018-08-25T06:53:33.055Z,10644.00
2018-08-25T06:54:33.009Z,10588.00
2018-08-25T06:55:32.938Z,10340.00
2018-08-25T06:56:32.882Z,10580.00
2018-08-25T06:57:32.825Z,10428.00
2018-08-25T06:58:32.763Z,10008.00
2018-08-25T06:59:32.739Z,10260.00
2018-08-25T07:00:32.636Z,10064.00
2018-08-25T07:01:32.575Z,9936.00
2018-08-25T07:02:32.516Z,9232.00
2018-08-25T07:03:32.456Z,8780.00
2018-08-25T07:04:32.407Z,8688.00
2018-08-25T07:05:32.343Z,8444.00
2018-08-25T07:06:32.282Z,8336.00
2018-08-25T07:07:32.219Z,8476.00
2018-08-25T07:08:32.172Z,8764.00
2018-08-25T07:09:32.102Z,9144.00
2018-08-25T07:10:32.047Z,9132.00
2018-08-25T07:11:31.994Z,8420.00
2018-08-25T07:12:31.918Z,7508.00
2018-08-25T07:13:31.856Z,6880.00
2018-08-25T07:14:31.801Z,6188.00
2018-08-25T07:15:31.739Z,6068.00
2018-08-25T07:16:31.683Z,5992.00
2018-08-25T07:17:31.627Z,5904.00
2018-08-25T07:18:31.572Z,5852.00
2018-08-25T07:19:31.506Z,5816.00
2018-08-25T07:20:31.451Z,5796.00
2018-08-25T07:21:31.378Z,5808.00
2018-08-25T07:22:31.328Z,5868.00
2018-08-25T07:23:31.270Z,5972.00
2018-08-25T07:24:31.202Z,6092.00
2018-08-25T07:25:31.139Z,6268.00
2018-08-25T07:26:31.086Z,6432.00
2018-08-25T07:27:31.038Z,6632.00
2018-08-25T07:28:30.967Z,6828.00
2018-08-25T07:29:30.907Z,6952.00
2018-08-25T07:30:30.849Z,6992.00
2018-08-25T07:31:30.794Z,7032.00
2018-08-25T07:32:30.720Z,7036.00
2018-08-25T07:33:30.658Z,6800.00
2018-08-25T07:34:30.599Z,6628.00
2018-08-25T07:35:30.537Z,6932.00
2018-08-25T07:36:30.485Z,6680.00
2018-08-25T07:37:30.422Z,6836.00
2018-08-25T07:38:30.356Z,6816.00
2018-08-25T07:39:30.294Z,6904.00
2018-08-25T07:40:30.244Z,6724.00
2018-08-25T07:41:30.182Z,6840.00
2018-08-25T07:42:30.129Z,7296.00
2018-08-25T07:43:30.076Z,7512.00
2018-08-25T07:44:29.995Z,7476.00
2018-08-25T07:45:29.935Z,7672.00
2018-08-25T07:46:29.875Z,7820.00
2018-08-25T07:47:29.813Z,7856.00
2018-08-25T07:48:29.802Z,7784.00
2018-08-25T07:49:29.736Z,7576.00
2018-08-25T07:50:29.642Z,7180.00
2018-08-25T07:51:29.579Z,6688.00
2018-08-25T07:52:29.516Z,6604.00
2018-08-25T07:53:29.461Z,6608.00
2018-08-25T07:54:29.423Z,6756.00
2018-08-25T07:55:29.360Z,6876.00
2018-08-25T07:56:30.827Z,7040.00
2018-08-25T07:57:29.216Z,7552.00
2018-08-25T07:58:29.214Z,7680.00
2018-08-25T07:59:29.110Z,7496.00
2018-08-25T08:00:29.040Z,7584.00
2018-08-25T08:01:28.981Z,7704.00
2018-08-25T08:02:28.921Z,8048.00
2018-08-25T08:03:28.862Z,8076.00
2018-08-25T08:04:28.796Z,8136.00
2018-08-25T08:05:28.790Z,8236.00
2018-08-25T08:06:28.681Z,8292.00
2018-08-25T08:07:28.614Z,8336.00
2018-08-25T08:08:28.583Z,8396.00
2018-08-25T08:09:28.503Z,8312.00
2018-08-25T08:10:28.438Z,8508.00
2018-08-25T08:11:28.376Z,8508.00
2018-08-25T08:12:28.329Z,8600.00
2018-08-25T08:13:28.263Z,8660.00
2018-08-25T08:14:28.216Z,8760.00
2018-08-25T08:15:28.144Z,8636.00
2018-08-25T08:16:28.080Z,8652.00
2018-08-25T08:17:28.019Z,8664.00
2018-08-25T08:18:27.966Z,8620.00
2018-08-25T08:19:27.897Z,8532.00
2018-08-25T08:20:27.846Z,8576.00
2018-08-25T08:21:27.784Z,8596.00
2018-08-25T08:22:27.728Z,8616.00
2018-08-25T08:23:27.666Z,8664.00
2018-08-25T08:24:27.600Z,8740.00
2018-08-25T08:25:28.341Z,8792.00
2018-08-25T08:26:27.488Z,8852.00
2018-08-25T08:27:27.426Z,8924.00
2018-08-25T08:28:27.363Z,8960.00
2018-08-25T08:29:27.303Z,8980.00
2018-08-25T08:30:27.257Z,8968.00
2018-08-25T08:31:27.183Z,8968.00
2018-08-25T08:32:27.141Z,8888.00
2018-08-25T08:33:27.073Z,8920.00
2018-08-25T08:34:27.015Z,8916.00
2018-08-25T08:35:26.957Z,8848.00
2018-08-25T08:36:26.885Z,8888.00
2018-08-25T08:37:26.830Z,8884.00
2018-08-25T08:38:26.773Z,8952.00
2018-08-25T08:39:26.734Z,9028.00
2018-08-25T08:40:26.659Z,9112.00
2018-08-25T08:41:26.611Z,9216.00
2018-08-25T08:42:26.654Z,9332.00
2018-08-25T08:43:26.472Z,9508.00
2018-08-25T08:44:26.419Z,9660.00
2018-08-25T08:45:26.424Z,9796.00
2018-08-25T08:46:26.301Z,9908.00
2018-08-25T08:47:26.375Z,10056.00
2018-08-25T08:48:26.176Z,10164.00
2018-08-25T08:49:26.119Z,10244.00
2018-08-25T08:50:26.076Z,10296.00
2018-08-25T08:51:26.006Z,10284.00
2018-08-25T08:52:25.947Z,10148.00
2018-08-25T08:53:25.887Z,9996.00
2018-08-25T08:54:25.897Z,10152.00
2018-08-25T08:55:25.772Z,10248.00
2018-08-25T08:56:25.707Z,10236.00
2018-08-25T08:57:25.651Z,9912.00
2018-08-25T08:58:25.704Z,9196.00
2018-08-25T08:59:25.537Z,8828.00
2018-08-25T09:00:25.468Z,8916.00
2018-08-25T09:01:25.416Z,8544.00
2018-08-25T09:02:25.352Z,8988.00
2018-08-25T09:03:25.316Z,9352.00
2018-08-25T09:04:25.237Z,9560.00
2018-08-25T09:05:25.180Z,10260.00
2018-08-25T09:06:25.118Z,10888.00
2018-08-25T09:07:25.052Z,10888.00
2018-08-25T09:08:25.003Z,10680.00
2018-08-25T09:09:24.943Z,10308.00
2018-08-25T09:10:24.887Z,10032.00
2018-08-25T09:11:24.849Z,10252.00
2018-08-25T09:12:24.760Z,10708.00
2018-08-25T09:13:24.702Z,10592.00
2018-08-25T09:14:24.653Z,11236.00
2018-08-25T09:15:24.595Z,11716.00
2018-08-25T09:16:24.523Z,12400.00
2018-08-25T09:17:24.464Z,11672.00
2018-08-25T09:18:32.361Z,11620.00
2018-08-25T09:19:24.370Z,11596.00
2018-08-25T09:20:24.293Z,11788.00
2018-08-25T09:21:24.234Z,13504.00
2018-08-25T09:22:25.861Z,14720.00
2018-08-25T09:23:24.118Z,13668.00
2018-08-25T09:24:24.050Z,12804.00
2018-08-25T09:25:23.990Z,11028.00
2018-08-25T09:26:23.936Z,9960.00
2018-08-25T09:27:25.943Z,8800.00
2018-08-25T09:28:23.882Z,7472.00
2018-08-25T09:29:23.763Z,6948.00
2018-08-25T09:30:23.701Z,6668.00
2018-08-25T09:31:23.642Z,6828.00
2018-08-25T09:32:23.588Z,7196.00
2018-08-25T09:33:23.693Z,7256.00
2018-08-25T09:34:23.470Z,7584.00
2018-08-25T09:35:23.413Z,7772.00
2018-08-25T09:36:23.468Z,7964.00
2018-08-25T09:37:23.287Z,7884.00
2018-08-25T09:38:23.229Z,7800.00
2018-08-25T09:39:23.174Z,7896.00
2018-08-25T09:40:23.121Z,8204.00
2018-08-25T09:41:23.063Z,8732.00
2018-08-25T09:42:22.998Z,9568.00
2018-08-25T09:43:22.940Z,9772.00
2018-08-25T09:44:22.874Z,9660.00
2018-08-25T09:45:22.814Z,9708.00
2018-08-25T09:46:22.764Z,9652.00
2018-08-25T09:47:22.703Z,9556.00
2018-08-25T09:48:22.637Z,9664.00
2018-08-25T09:49:22.578Z,10076.00
2018-08-25T09:50:22.525Z,11064.00
2018-08-25T09:51:22.461Z,12564.00
2018-08-25T09:52:22.454Z,14252.00
2018-08-25T09:53:22.420Z,15220.00
2018-08-25T09:54:22.288Z,15188.00
2018-08-25T09:55:22.229Z,15496.00
2018-08-25T09:56:22.164Z,16056.00
2018-08-25T09:57:22.106Z,14648.00
2018-08-25T09:58:22.045Z,13952.00
2018-08-25T09:59:21.987Z,13940.00
2018-08-25T10:00:21.950Z,13772.00
2018-08-25T10:01:21.885Z,13680.00
2018-08-25T10:02:21.844Z,13448.00
2018-08-25T10:03:21.752Z,14988.00
2018-08-25T10:04:21.700Z,15316.00
2018-08-25T10:05:21.749Z,14284.00
2018-08-25T10:06:21.585Z,13476.00
2018-08-25T10:07:21.529Z,13548.00
2018-08-25T10:08:21.473Z,12896.00
2018-08-25T10:09:21.401Z,12992.00
2018-08-25T10:10:21.343Z,12228.00
2018-08-25T10:11:21.284Z,10044.00
2018-08-25T10:12:21.233Z,8276.00
2018-08-25T10:13:22.875Z,7384.00
2018-08-25T10:14:21.115Z,6964.00
2018-08-25T10:15:21.061Z,6888.00
2018-08-25T10:16:21.040Z,7324.00
2018-08-25T10:17:20.940Z,8228.00
2018-08-25T10:18:20.889Z,9552.00
2018-08-25T10:19:20.826Z,10440.00
2018-08-25T10:20:20.763Z,10948.00
2018-08-25T10:21:20.707Z,11460.00
2018-08-25T10:22:20.651Z,12124.00
2018-08-25T10:23:20.658Z,12928.00
2018-08-25T10:24:20.529Z,13036.00
2018-08-25T10:25:20.475Z,12776.00
2018-08-25T10:26:20.416Z,12640.00
2018-08-25T10:27:21.898Z,12760.00
2018-08-25T10:28:20.302Z,13736.00
2018-08-25T10:29:20.258Z,15344.00
2018-08-25T10:30:20.181Z,16840.00
2018-08-25T10:31:20.115Z,17952.00
2018-08-25T10:32:20.061Z,16028.00
2018-08-25T10:33:20.003Z,14396.00
2018-08-25T10:34:19.938Z,13616.00
2018-08-25T10:35:19.884Z,13284.00
2018-08-25T10:36:19.830Z,11720.00
2018-08-25T10:37:19.774Z,10344.00
2018-08-25T10:38:19.722Z,9104.00
2018-08-25T10:39:19.653Z,8364.00
2018-08-25T10:40:19.593Z,7740.00
2018-08-25T10:41:19.532Z,7348.00
2018-08-25T10:42:19.507Z,7504.00
2018-08-25T10:43:19.417Z,8016.00
2018-08-25T10:44:19.365Z,8496.00
2018-08-25T10:45:19.309Z,8884.00
2018-08-25T10:46:19.247Z,10016.00
2018-08-25T10:47:19.188Z,11472.00
2018-08-25T10:48:19.123Z,12512.00
2018-08-25T10:49:19.065Z,12256.00
2018-08-25T10:50:19.013Z,11560.00
2018-08-25T10:51:18.953Z,11144.00
2018-08-25T10:52:18.889Z,11024.00
2018-08-25T10:53:18.848Z,11228.00
2018-08-25T10:54:18.773Z,11384.00
2018-08-25T10:55:18.713Z,11692.00
2018-08-25T10:56:18.662Z,12464.00
2018-08-25T10:57:18.609Z,12944.00
2018-08-25T10:58:18.554Z,13700.00
2018-08-25T10:59:18.485Z,15316.00
2018-08-25T11:00:18.507Z,17536.00
2018-08-25T11:01:18.409Z,20512.00
2018-08-25T11:02:18.305Z,23968.00
2018-08-25T11:03:18.245Z,25152.00
2018-08-25T11:04:18.196Z,23360.00
2018-08-25T11:05:18.137Z,22272.00
2018-08-25T11:06:18.071Z,18592.00
2018-08-25T11:07:19.887Z,15764.00
2018-08-25T11:08:17.963Z,13416.00
2018-08-25T11:09:17.902Z,11052.00
2018-08-25T11:10:17.847Z,9544.00
2018-08-25T11:11:17.787Z,8664.00
2018-08-25T11:12:17.720Z,8588.00
2018-08-25T11:13:17.666Z,9032.00
2018-08-25T11:14:17.611Z,10388.00
2018-08-25T11:15:17.549Z,12148.00
2018-08-25T11:16:17.532Z,14432.00
2018-08-25T11:17:17.440Z,16440.00
2018-08-25T11:18:17.381Z,18048.00
2018-08-25T11:19:17.326Z,20896.00
2018-08-25T11:20:17.259Z,34880.00
2018-08-25T11:21:17.203Z,25600.00
2018-08-25T11:22:17.151Z,25152.00
2018-08-25T11:23:17.095Z,22464.00
2018-08-25T11:24:17.026Z,19744.00
2018-08-25T11:25:17.008Z,17344.00
2018-08-25T11:26:16.913Z,14756.00
2018-08-25T11:27:16.934Z,13796.00
2018-08-25T11:28:16.844Z,14136.00
2018-08-25T11:29:16.782Z,15112.00
2018-08-25T11:30:16.697Z,15980.00
2018-08-25T11:31:16.631Z,14276.00
2018-08-25T11:32:16.664Z,12504.00
2018-08-25T11:33:16.513Z,11448.00
2018-08-25T11:34:16.458Z,11060.00
2018-08-25T11:35:16.406Z,10376.00
2018-08-25T11:36:16.343Z,10168.00
2018-08-25T11:37:16.333Z,10332.00
2018-08-25T11:38:16.223Z,10452.00
2018-08-25T11:39:16.171Z,11376.00
2018-08-25T11:40:16.112Z,12736.00
2018-08-25T11:41:16.054Z,14952.00
2018-08-25T11:42:16.010Z,18496.00
2018-08-25T11:43:15.941Z,24448.00
2018-08-25T11:44:15.904Z,39328.00
2018-08-25T11:45:15.817Z,52224.00
2018-08-25T11:46:15.767Z,30144.00
2018-08-25T11:47:15.704Z,27680.00
2018-08-25T11:48:15.653Z,25792.00
2018-08-25T11:49:15.592Z,25728.00
2018-08-25T11:50:15.552Z,30944.00
2018-08-25T11:51:15.502Z,43520.00
2018-08-25T11:52:17.465Z,48704.00
2018-08-25T11:53:15.366Z,50592.00
2018-08-25T11:54:15.349Z,63264.00
2018-08-25T11:55:15.248Z,49696.00
2018-08-25T12:01:16.192Z,16592.00
2018-08-25T12:02:16.124Z,15304.00
2018-08-25T12:04:09.442Z,13968.00
2018-08-25T12:05:09.338Z,14200.00
2018-08-25T12:07:02.650Z,12460.00
2018-08-25T12:08:02.585Z,11256.00
2018-08-25T12:09:57.877Z,8108.00
2018-08-25T12:10:57.782Z,7716.00
2018-08-25T12:12:51.112Z,7152.00
2018-08-25T12:13:51.017Z,6528.00
2018-08-25T12:15:45.327Z,5852.00
2018-08-25T12:16:45.222Z,5624.00
2018-08-25T12:18:39.534Z,5456.00
2018-08-25T12:19:39.445Z,5012.00
2018-08-25T12:20:39.403Z,4556.00
2018-08-25T12:21:39.333Z,4312.00
2018-08-25T12:22:39.281Z,4200.00
2018-08-25T12:23:39.220Z,4148.00
2018-08-25T12:24:39.154Z,4216.00
2018-08-25T12:25:39.095Z,4436.00
2018-08-25T12:26:39.037Z,4644.00
2018-08-25T12:27:38.982Z,4876.00
2018-08-25T12:28:38.928Z,5068.00
2018-08-25T12:29:38.864Z,5336.00
2018-08-25T12:30:38.855Z,5668.00
2018-08-25T12:31:38.750Z,5940.00
2018-08-25T12:32:38.702Z,5964.00
2018-08-25T12:33:38.737Z,5736.00
2018-08-25T12:34:38.579Z,5380.00
2018-08-25T12:35:38.515Z,5452.00
2018-08-25T12:36:38.452Z,5916.00
2018-08-25T12:37:38.387Z,6196.00
2018-08-25T12:38:38.329Z,6216.00
2018-08-25T12:39:38.377Z,6264.00
2018-08-25T12:40:38.218Z,6192.00
2018-08-25T12:41:38.154Z,5744.00
2018-08-25T12:42:38.096Z,5920.00
2018-08-25T12:43:38.122Z,6896.00
2018-08-25T12:44:37.984Z,8256.00
2018-08-25T12:45:37.913Z,9040.00